sensor_id;sensor_type;location;lat;lon;timestamp;P1;durP1;ratioP1;P2;durP2;ratioP2
43620;SDS011;29213;50.770;7.298;2022-11-20T00:02:18;14.75;;;11.30;;
43620;SDS011;29213;50.770;7.298;2022-11-20T00:04:44;17.70;;;12.38;;
43620;SDS011;29213;50.770;7.298;2022-11-20T00:07:09;16.90;;;11.98;;
43620;SDS011;29213;50.770;7.298;2022-11-20T00:09:35;16.98;;;11.77;;
43620;SDS011;29213;50.770;7.298;2022-11-20T00:12:00;17.67;;;12.57;;
43620;SDS011;29213;50.770;7.298;2022-11-20T00:14:25;15.35;;;10.93;;
43620;SDS011;29213;50.770;7.298;2022-11-20T00:16:51;16.05;;;11.48;;
43620;SDS011;29213;50.770;7.298;2022-11-20T00:19:16;17.42;;;11.50;;
43620;SDS011;29213;50.770;7.298;2022-11-20T00:21:41;15.65;;;11.07;;
43620;SDS011;29213;50.770;7.298;2022-11-20T00:24:10;14.88;;;11.07;;
43620;SDS011;29213;50.770;7.298;2022-11-20T00:26:35;15.25;;;10.77;;
43620;SDS011;29213;50.770;7.298;2022-11-20T00:29:01;15.27;;;10.90;;
43620;SDS011;29213;50.770;7.298;2022-11-20T00:31:27;15.57;;;11.20;;
43620;SDS011;29213;50.770;7.298;2022-11-20T00:33:53;15.80;;;11.32;;
43620;SDS011;29213;50.770;7.298;2022-11-20T00:36:23;15.98;;;10.35;;
43620;SDS011;29213;50.770;7.298;2022-11-20T00:38:53;16.67;;;11.85;;
43620;SDS011;29213;50.770;7.298;2022-11-20T00:41:20;17.02;;;11.93;;
43620;SDS011;29213;50.770;7.298;2022-11-20T00:43:45;15.65;;;11.32;;
43620;SDS011;29213;50.770;7.298;2022-11-20T00:46:17;15.13;;;10.70;;
43620;SDS011;29213;50.770;7.298;2022-11-20T00:48:44;16.92;;;12.02;;
43620;SDS011;29213;50.770;7.298;2022-11-20T00:51:14;15.32;;;10.80;;
43620;SDS011;29213;50.770;7.298;2022-11-20T00:53:41;14.63;;;10.93;;
43620;SDS011;29213;50.770;7.298;2022-11-20T00:56:07;18.15;;;12.15;;
43620;SDS011;29213;50.770;7.298;2022-11-20T00:58:36;15.43;;;11.23;;
43620;SDS011;29213;50.770;7.298;2022-11-20T01:01:08;16.10;;;11.40;;
43620;SDS011;29213;50.770;7.298;2022-11-20T01:03:36;14.63;;;11.07;;
43620;SDS011;29213;50.770;7.298;2022-11-20T01:06:07;17.00;;;11.68;;
43620;SDS011;29213;50.770;7.298;2022-11-20T01:08:35;16.90;;;11.55;;
43620;SDS011;29213;50.770;7.298;2022-11-20T01:11:02;14.80;;;10.88;;
43620;SDS011;29213;50.770;7.298;2022-11-20T01:13:32;15.10;;;11.10;;
43620;SDS011;29213;50.770;7.298;2022-11-20T01:16:08;15.25;;;11.68;;
43620;SDS011;29213;50.770;7.298;2022-11-20T01:18:36;15.40;;;11.68;;
43620;SDS011;29213;50.770;7.298;2022-11-20T01:21:07;15.27;;;11.55;;
43620;SDS011;29213;50.770;7.298;2022-11-20T01:23:35;14.57;;;10.63;;
43620;SDS011;29213;50.770;7.298;2022-11-20T01:26:03;17.67;;;11.88;;
43620;SDS011;29213;50.770;7.298;2022-11-20T01:28:30;16.15;;;11.23;;
43620;SDS011;29213;50.770;7.298;2022-11-20T01:30:56;16.45;;;11.63;;
43620;SDS011;29213;50.770;7.298;2022-11-20T01:33:21;15.00;;;10.95;;
43620;SDS011;29213;50.770;7.298;2022-11-20T01:35:47;16.48;;;12.07;;
43620;SDS011;29213;50.770;7.298;2022-11-20T01:38:14;15.48;;;11.32;;
43620;SDS011;29213;50.770;7.298;2022-11-20T01:40:40;15.88;;;11.75;;
43620;SDS011;29213;50.770;7.298;2022-11-20T01:43:18;16.45;;;10.80;;
43620;SDS011;29213;50.770;7.298;2022-11-20T01:51:52;15.32;;;11.20;;
43620;SDS011;29213;50.770;7.298;2022-11-20T01:54:43;15.65;;;10.90;;
43620;SDS011;29213;50.770;7.298;2022-11-20T01:57:18;15.95;;;11.68;;
43620;SDS011;29213;50.770;7.298;2022-11-20T01:59:47;15.63;;;11.43;;
43620;SDS011;29213;50.770;7.298;2022-11-20T02:02:18;15.00;;;11.43;;
43620;SDS011;29213;50.770;7.298;2022-11-20T02:04:44;16.55;;;11.80;;
43620;SDS011;29213;50.770;7.298;2022-11-20T02:07:09;15.68;;;11.02;;
43620;SDS011;29213;50.770;7.298;2022-11-20T02:09:35;16.20;;;11.20;;
43620;SDS011;29213;50.770;7.298;2022-11-20T02:12:01;17.73;;;12.88;;
43620;SDS011;29213;50.770;7.298;2022-11-20T02:14:26;19.70;;;12.70;;
43620;SDS011;29213;50.770;7.298;2022-11-20T02:16:52;17.98;;;11.88;;
43620;SDS011;29213;50.770;7.298;2022-11-20T02:21:55;14.70;;;10.65;;
43620;SDS011;29213;50.770;7.298;2022-11-20T02:24:47;15.10;;;11.38;;
43620;SDS011;29213;50.770;7.298;2022-11-20T02:27:15;15.38;;;11.57;;
43620;SDS011;29213;50.770;7.298;2022-11-20T02:29:42;15.98;;;11.40;;
43620;SDS011;29213;50.770;7.298;2022-11-20T02:32:23;15.27;;;11.65;;
43620;SDS011;29213;50.770;7.298;2022-11-20T02:34:51;16.00;;;11.18;;
43620;SDS011;29213;50.770;7.298;2022-11-20T02:37:16;16.48;;;11.05;;
43620;SDS011;29213;50.770;7.298;2022-11-20T02:39:44;16.90;;;11.85;;
43620;SDS011;29213;50.770;7.298;2022-11-20T02:42:11;16.85;;;11.48;;
43620;SDS011;29213;50.770;7.298;2022-11-20T02:44:36;16.92;;;11.90;;
43620;SDS011;29213;50.770;7.298;2022-11-20T02:47:02;18.35;;;12.40;;
43620;SDS011;29213;50.770;7.298;2022-11-20T02:49:27;15.82;;;11.60;;
43620;SDS011;29213;50.770;7.298;2022-11-20T02:51:53;16.70;;;12.07;;
43620;SDS011;29213;50.770;7.298;2022-11-20T02:54:18;16.30;;;12.02;;
43620;SDS011;29213;50.770;7.298;2022-11-20T02:56:43;17.27;;;12.07;;
43620;SDS011;29213;50.770;7.298;2022-11-20T02:59:09;15.98;;;11.27;;
43620;SDS011;29213;50.770;7.298;2022-11-20T03:01:35;18.38;;;12.10;;
43620;SDS011;29213;50.770;7.298;2022-11-20T03:04:00;16.80;;;12.15;;
43620;SDS011;29213;50.770;7.298;2022-11-20T03:06:26;16.52;;;12.15;;
43620;SDS011;29213;50.770;7.298;2022-11-20T03:08:51;16.83;;;11.75;;
43620;SDS011;29213;50.770;7.298;2022-11-20T03:11:17;15.30;;;11.23;;
43620;SDS011;29213;50.770;7.298;2022-11-20T03:13:42;16.55;;;11.48;;
43620;SDS011;29213;50.770;7.298;2022-11-20T03:16:15;16.27;;;12.00;;
43620;SDS011;29213;50.770;7.298;2022-11-20T03:18:42;14.85;;;11.00;;
43620;SDS011;29213;50.770;7.298;2022-11-20T03:21:08;16.13;;;11.68;;
43620;SDS011;29213;50.770;7.298;2022-11-20T03:23:35;15.77;;;10.77;;
43620;SDS011;29213;50.770;7.298;2022-11-20T03:26:07;15.18;;;11.38;;
43620;SDS011;29213;50.770;7.298;2022-11-20T03:28:40;14.95;;;10.32;;
43620;SDS011;29213;50.770;7.298;2022-11-20T03:31:07;14.95;;;10.85;;
43620;SDS011;29213;50.770;7.298;2022-11-20T03:33:38;14.50;;;10.13;;
43620;SDS011;29213;50.770;7.298;2022-11-20T03:36:05;14.48;;;10.20;;
43620;SDS011;29213;50.770;7.298;2022-11-20T03:38:32;14.57;;;11.02;;
43620;SDS011;29213;50.770;7.298;2022-11-20T03:40:59;14.02;;;10.55;;
43620;SDS011;29213;50.770;7.298;2022-11-20T03:43:27;15.93;;;10.70;;
43620;SDS011;29213;50.770;7.298;2022-11-20T03:45:53;15.13;;;11.10;;
43620;SDS011;29213;50.770;7.298;2022-11-20T03:48:18;15.02;;;11.10;;
43620;SDS011;29213;50.770;7.298;2022-11-20T03:50:43;15.45;;;10.82;;
43620;SDS011;29213;50.770;7.298;2022-11-20T03:53:09;15.00;;;10.98;;
43620;SDS011;29213;50.770;7.298;2022-11-20T03:55:34;14.82;;;10.98;;
43620;SDS011;29213;50.770;7.298;2022-11-20T03:57:59;16.23;;;11.40;;
43620;SDS011;29213;50.770;7.298;2022-11-20T04:00:25;16.30;;;11.00;;
43620;SDS011;29213;50.770;7.298;2022-11-20T04:02:50;15.52;;;11.30;;
43620;SDS011;29213;50.770;7.298;2022-11-20T04:05:16;15.18;;;11.07;;
43620;SDS011;29213;50.770;7.298;2022-11-20T04:07:41;16.30;;;11.85;;
43620;SDS011;29213;50.770;7.298;2022-11-20T04:10:06;14.10;;;10.95;;
43620;SDS011;29213;50.770;7.298;2022-11-20T04:12:32;16.05;;;11.18;;
43620;SDS011;29213;50.770;7.298;2022-11-20T04:14:58;15.23;;;11.43;;
43620;SDS011;29213;50.770;7.298;2022-11-20T04:17:24;16.33;;;11.82;;
43620;SDS011;29213;50.770;7.298;2022-11-20T04:19:49;16.45;;;11.30;;
43620;SDS011;29213;50.770;7.298;2022-11-20T04:22:14;16.73;;;11.77;;
43620;SDS011;29213;50.770;7.298;2022-11-20T04:24:40;15.02;;;11.15;;
43620;SDS011;29213;50.770;7.298;2022-11-20T04:27:05;14.45;;;10.82;;
43620;SDS011;29213;50.770;7.298;2022-11-20T04:29:31;15.13;;;11.00;;
43620;SDS011;29213;50.770;7.298;2022-11-20T04:31:56;12.90;;;9.65;;
43620;SDS011;29213;50.770;7.298;2022-11-20T04:34:21;14.88;;;10.60;;
43620;SDS011;29213;50.770;7.298;2022-11-20T04:36:47;15.50;;;11.00;;
43620;SDS011;29213;50.770;7.298;2022-11-20T04:39:13;14.98;;;10.55;;
43620;SDS011;29213;50.770;7.298;2022-11-20T04:41:40;14.95;;;10.77;;
43620;SDS011;29213;50.770;7.298;2022-11-20T04:44:06;17.55;;;12.05;;
43620;SDS011;29213;50.770;7.298;2022-11-20T04:46:32;15.00;;;10.85;;
43620;SDS011;29213;50.770;7.298;2022-11-20T04:48:59;15.18;;;10.82;;
43620;SDS011;29213;50.770;7.298;2022-11-20T04:51:25;15.48;;;10.90;;
43620;SDS011;29213;50.770;7.298;2022-11-20T04:53:51;15.40;;;10.48;;
43620;SDS011;29213;50.770;7.298;2022-11-20T04:56:17;15.70;;;10.85;;
43620;SDS011;29213;50.770;7.298;2022-11-20T04:58:42;14.32;;;10.50;;
43620;SDS011;29213;50.770;7.298;2022-11-20T05:01:15;15.10;;;10.40;;
43620;SDS011;29213;50.770;7.298;2022-11-20T05:03:41;14.68;;;10.32;;
43620;SDS011;29213;50.770;7.298;2022-11-20T05:06:08;14.18;;;10.38;;
43620;SDS011;29213;50.770;7.298;2022-11-20T05:08:34;13.88;;;10.20;;
43620;SDS011;29213;50.770;7.298;2022-11-20T05:11:03;16.20;;;10.45;;
43620;SDS011;29213;50.770;7.298;2022-11-20T05:13:31;17.17;;;11.65;;
43620;SDS011;29213;50.770;7.298;2022-11-20T05:16:09;14.02;;;10.18;;
43620;SDS011;29213;50.770;7.298;2022-11-20T05:18:37;13.40;;;10.20;;
43620;SDS011;29213;50.770;7.298;2022-11-20T05:21:02;16.08;;;10.80;;
43620;SDS011;29213;50.770;7.298;2022-11-20T05:23:29;14.20;;;10.38;;
43620;SDS011;29213;50.770;7.298;2022-11-20T05:25:56;15.60;;;11.27;;
43620;SDS011;29213;50.770;7.298;2022-11-20T05:28:22;14.30;;;9.93;;
43620;SDS011;29213;50.770;7.298;2022-11-20T05:30:48;15.40;;;11.30;;
43620;SDS011;29213;50.770;7.298;2022-11-20T05:33:14;13.48;;;10.30;;
43620;SDS011;29213;50.770;7.298;2022-11-20T05:35:39;15.18;;;10.30;;
43620;SDS011;29213;50.770;7.298;2022-11-20T05:38:05;14.30;;;10.77;;
43620;SDS011;29213;50.770;7.298;2022-11-20T05:40:30;14.98;;;10.48;;
43620;SDS011;29213;50.770;7.298;2022-11-20T05:42:56;15.00;;;11.00;;
43620;SDS011;29213;50.770;7.298;2022-11-20T05:45:21;16.77;;;11.02;;
43620;SDS011;29213;50.770;7.298;2022-11-20T05:47:46;15.95;;;11.05;;
43620;SDS011;29213;50.770;7.298;2022-11-20T05:50:12;15.82;;;11.50;;
43620;SDS011;29213;50.770;7.298;2022-11-20T05:52:38;16.52;;;11.70;;
43620;SDS011;29213;50.770;7.298;2022-11-20T05:55:04;15.73;;;11.38;;
43620;SDS011;29213;50.770;7.298;2022-11-20T05:57:30;15.85;;;10.80;;
43620;SDS011;29213;50.770;7.298;2022-11-20T05:59:55;15.90;;;11.50;;
43620;SDS011;29213;50.770;7.298;2022-11-20T06:02:21;14.70;;;11.00;;
43620;SDS011;29213;50.770;7.298;2022-11-20T06:04:46;16.95;;;12.30;;
43620;SDS011;29213;50.770;7.298;2022-11-20T06:07:12;16.80;;;11.02;;
43620;SDS011;29213;50.770;7.298;2022-11-20T06:09:37;16.20;;;11.63;;
43620;SDS011;29213;50.770;7.298;2022-11-20T06:12:03;14.90;;;10.98;;
43620;SDS011;29213;50.770;7.298;2022-11-20T06:14:28;16.70;;;11.10;;
43620;SDS011;29213;50.770;7.298;2022-11-20T06:16:53;15.13;;;11.45;;
43620;SDS011;29213;50.770;7.298;2022-11-20T06:19:19;15.70;;;11.40;;
43620;SDS011;29213;50.770;7.298;2022-11-20T06:21:44;16.17;;;11.25;;
43620;SDS011;29213;50.770;7.298;2022-11-20T06:24:10;15.90;;;11.55;;
43620;SDS011;29213;50.770;7.298;2022-11-20T06:26:36;17.20;;;11.48;;
43620;SDS011;29213;50.770;7.298;2022-11-20T06:29:01;15.95;;;11.77;;
43620;SDS011;29213;50.770;7.298;2022-11-20T06:31:27;16.70;;;11.70;;
43620;SDS011;29213;50.770;7.298;2022-11-20T06:33:53;17.90;;;11.68;;
43620;SDS011;29213;50.770;7.298;2022-11-20T06:36:19;17.33;;;12.02;;
43620;SDS011;29213;50.770;7.298;2022-11-20T06:38:46;17.30;;;12.00;;
43620;SDS011;29213;50.770;7.298;2022-11-20T06:41:12;18.40;;;12.52;;
43620;SDS011;29213;50.770;7.298;2022-11-20T06:43:42;17.73;;;12.18;;
43620;SDS011;29213;50.770;7.298;2022-11-20T06:46:09;18.77;;;12.68;;
43620;SDS011;29213;50.770;7.298;2022-11-20T06:48:36;17.92;;;12.52;;
43620;SDS011;29213;50.770;7.298;2022-11-20T06:51:05;16.10;;;11.80;;
43620;SDS011;29213;50.770;7.298;2022-11-20T06:55:57;17.52;;;11.55;;
43620;SDS011;29213;50.770;7.298;2022-11-20T06:58:23;20.67;;;13.50;;
43620;SDS011;29213;50.770;7.298;2022-11-20T07:00:50;19.55;;;13.35;;
43620;SDS011;29213;50.770;7.298;2022-11-20T07:03:16;21.50;;;14.20;;
43620;SDS011;29213;50.770;7.298;2022-11-20T07:05:41;21.40;;;15.00;;
43620;SDS011;29213;50.770;7.298;2022-11-20T07:08:07;34.08;;;19.92;;
43620;SDS011;29213;50.770;7.298;2022-11-20T07:10:32;26.85;;;16.85;;
43620;SDS011;29213;50.770;7.298;2022-11-20T07:12:58;24.60;;;15.63;;
43620;SDS011;29213;50.770;7.298;2022-11-20T07:15:24;18.60;;;12.68;;
43620;SDS011;29213;50.770;7.298;2022-11-20T07:17:50;17.27;;;11.88;;
43620;SDS011;29213;50.770;7.298;2022-11-20T07:20:16;17.90;;;12.27;;
43620;SDS011;29213;50.770;7.298;2022-11-20T07:22:41;16.90;;;11.73;;
43620;SDS011;29213;50.770;7.298;2022-11-20T07:25:07;17.77;;;12.10;;
43620;SDS011;29213;50.770;7.298;2022-11-20T07:27:34;18.48;;;12.95;;
43620;SDS011;29213;50.770;7.298;2022-11-20T07:29:59;17.80;;;12.38;;
43620;SDS011;29213;50.770;7.298;2022-11-20T07:32:25;16.48;;;11.93;;
43620;SDS011;29213;50.770;7.298;2022-11-20T07:34:51;11.88;;;8.50;;
43620;SDS011;29213;50.770;7.298;2022-11-20T07:37:17;13.50;;;9.02;;
43620;SDS011;29213;50.770;7.298;2022-11-20T07:39:42;18.30;;;13.05;;
43620;SDS011;29213;50.770;7.298;2022-11-20T07:42:08;20.83;;;12.45;;
43620;SDS011;29213;50.770;7.298;2022-11-20T07:44:34;16.65;;;12.32;;
43620;SDS011;29213;50.770;7.298;2022-11-20T07:47:00;17.88;;;13.07;;
43620;SDS011;29213;50.770;7.298;2022-11-20T07:49:26;21.35;;;14.98;;
43620;SDS011;29213;50.770;7.298;2022-11-20T07:51:51;19.65;;;12.80;;
43620;SDS011;29213;50.770;7.298;2022-11-20T07:54:19;16.55;;;12.35;;
43620;SDS011;29213;50.770;7.298;2022-11-20T07:56:45;17.55;;;12.73;;
43620;SDS011;29213;50.770;7.298;2022-11-20T07:59:10;18.40;;;13.43;;
43620;SDS011;29213;50.770;7.298;2022-11-20T08:01:37;17.00;;;11.75;;
43620;SDS011;29213;50.770;7.298;2022-11-20T08:04:03;17.10;;;12.38;;
43620;SDS011;29213;50.770;7.298;2022-11-20T08:06:28;17.05;;;12.43;;
43620;SDS011;29213;50.770;7.298;2022-11-20T08:08:54;19.17;;;13.05;;
43620;SDS011;29213;50.770;7.298;2022-11-20T08:11:19;18.40;;;12.77;;
43620;SDS011;29213;50.770;7.298;2022-11-20T08:14:03;19.25;;;14.07;;
43620;SDS011;29213;50.770;7.298;2022-11-20T08:16:41;18.35;;;12.65;;
43620;SDS011;29213;50.770;7.298;2022-11-20T08:19:12;16.73;;;12.35;;
43620;SDS011;29213;50.770;7.298;2022-11-20T08:21:38;16.15;;;11.50;;
43620;SDS011;29213;50.770;7.298;2022-11-20T08:24:04;17.92;;;12.73;;
43620;SDS011;29213;50.770;7.298;2022-11-20T08:26:30;16.58;;;12.45;;
43620;SDS011;29213;50.770;7.298;2022-11-20T08:28:56;18.30;;;13.13;;
43620;SDS011;29213;50.770;7.298;2022-11-20T08:31:23;19.15;;;13.63;;
43620;SDS011;29213;50.770;7.298;2022-11-20T08:33:49;18.45;;;12.85;;
43620;SDS011;29213;50.770;7.298;2022-11-20T08:36:15;21.48;;;14.43;;
43620;SDS011;29213;50.770;7.298;2022-11-20T08:38:41;18.27;;;12.93;;
43620;SDS011;29213;50.770;7.298;2022-11-20T08:41:06;20.45;;;13.65;;
43620;SDS011;29213;50.770;7.298;2022-11-20T08:43:51;21.73;;;14.68;;
43620;SDS011;29213;50.770;7.298;2022-11-20T08:46:25;21.17;;;15.50;;
43620;SDS011;29213;50.770;7.298;2022-11-20T08:48:52;24.25;;;16.75;;
43620;SDS011;29213;50.770;7.298;2022-11-20T08:51:18;22.00;;;15.95;;
43620;SDS011;29213;50.770;7.298;2022-11-20T08:53:44;22.65;;;15.68;;
43620;SDS011;29213;50.770;7.298;2022-11-20T08:56:10;25.02;;;15.95;;
43620;SDS011;29213;50.770;7.298;2022-11-20T08:58:36;22.35;;;15.55;;
43620;SDS011;29213;50.770;7.298;2022-11-20T09:01:02;25.73;;;17.05;;
43620;SDS011;29213;50.770;7.298;2022-11-20T09:03:27;22.05;;;14.80;;
43620;SDS011;29213;50.770;7.298;2022-11-20T09:05:57;22.92;;;15.60;;
43620;SDS011;29213;50.770;7.298;2022-11-20T09:08:27;22.02;;;14.65;;
43620;SDS011;29213;50.770;7.298;2022-11-20T09:10:53;20.98;;;14.77;;
43620;SDS011;29213;50.770;7.298;2022-11-20T09:13:21;24.17;;;15.55;;
43620;SDS011;29213;50.770;7.298;2022-11-20T09:15:52;22.83;;;15.55;;
43620;SDS011;29213;50.770;7.298;2022-11-20T09:18:22;20.70;;;15.00;;
43620;SDS011;29213;50.770;7.298;2022-11-20T09:20:48;24.73;;;16.40;;
43620;SDS011;29213;50.770;7.298;2022-11-20T09:23:14;31.60;;;20.45;;
43620;SDS011;29213;50.770;7.298;2022-11-20T09:25:39;29.83;;;20.70;;
43620;SDS011;29213;50.770;7.298;2022-11-20T09:28:04;27.52;;;19.38;;
43620;SDS011;29213;50.770;7.298;2022-11-20T09:30:30;26.48;;;18.27;;
43620;SDS011;29213;50.770;7.298;2022-11-20T09:32:56;26.05;;;17.73;;
43620;SDS011;29213;50.770;7.298;2022-11-20T09:35:21;28.25;;;17.55;;
43620;SDS011;29213;50.770;7.298;2022-11-20T09:37:47;26.73;;;17.77;;
43620;SDS011;29213;50.770;7.298;2022-11-20T09:40:22;27.98;;;17.23;;
43620;SDS011;29213;50.770;7.298;2022-11-20T09:43:01;28.77;;;18.38;;
43620;SDS011;29213;50.770;7.298;2022-11-20T09:45:44;26.65;;;18.20;;
43620;SDS011;29213;50.770;7.298;2022-11-20T09:51:14;26.45;;;17.83;;
43620;SDS011;29213;50.770;7.298;2022-11-20T09:54:07;25.45;;;17.10;;
43620;SDS011;29213;50.770;7.298;2022-11-20T09:56:41;27.45;;;17.92;;
43620;SDS011;29213;50.770;7.298;2022-11-20T09:59:26;29.08;;;18.35;;
43620;SDS011;29213;50.770;7.298;2022-11-20T10:01:58;30.13;;;17.92;;
43620;SDS011;29213;50.770;7.298;2022-11-20T10:04:25;27.92;;;18.60;;
43620;SDS011;29213;50.770;7.298;2022-11-20T10:07:01;25.80;;;17.70;;
43620;SDS011;29213;50.770;7.298;2022-11-20T10:09:33;28.10;;;17.80;;
43620;SDS011;29213;50.770;7.298;2022-11-20T10:14:55;25.15;;;17.50;;
43620;SDS011;29213;50.770;7.298;2022-11-20T10:19:54;25.75;;;16.95;;
43620;SDS011;29213;50.770;7.298;2022-11-20T10:22:32;27.33;;;17.60;;
43620;SDS011;29213;50.770;7.298;2022-11-20T10:25:14;23.67;;;16.83;;
43620;SDS011;29213;50.770;7.298;2022-11-20T10:30:34;24.30;;;16.25;;
43620;SDS011;29213;50.770;7.298;2022-11-20T10:33:08;25.92;;;17.52;;
43620;SDS011;29213;50.770;7.298;2022-11-20T10:36:27;27.50;;;17.88;;
43620;SDS011;29213;50.770;7.298;2022-11-20T10:38:34;27.02;;;17.67;;
43620;SDS011;29213;50.770;7.298;2022-11-20T10:41:04;24.92;;;17.15;;
43620;SDS011;29213;50.770;7.298;2022-11-20T10:43:50;25.48;;;16.88;;
43620;SDS011;29213;50.770;7.298;2022-11-20T10:46:22;26.95;;;18.00;;
43620;SDS011;29213;50.770;7.298;2022-11-20T10:48:48;25.30;;;17.35;;
43620;SDS011;29213;50.770;7.298;2022-11-20T10:56:41;26.23;;;16.70;;
43620;SDS011;29213;50.770;7.298;2022-11-20T10:59:18;25.58;;;17.45;;
43620;SDS011;29213;50.770;7.298;2022-11-20T11:01:48;26.20;;;17.65;;
43620;SDS011;29213;50.770;7.298;2022-11-20T11:07:08;24.73;;;16.52;;
43620;SDS011;29213;50.770;7.298;2022-11-20T11:09:43;26.35;;;18.05;;
43620;SDS011;29213;50.770;7.298;2022-11-20T11:12:12;25.00;;;17.08;;
43620;SDS011;29213;50.770;7.298;2022-11-20T11:14:48;25.60;;;17.23;;
43620;SDS011;29213;50.770;7.298;2022-11-20T11:17:23;25.88;;;17.65;;
43620;SDS011;29213;50.770;7.298;2022-11-20T11:20:24;22.77;;;16.05;;
43620;SDS011;29213;50.770;7.298;2022-11-20T11:22:48;25.63;;;17.65;;
43620;SDS011;29213;50.770;7.298;2022-11-20T11:25:19;25.90;;;17.65;;
43620;SDS011;29213;50.770;7.298;2022-11-20T11:27:47;22.60;;;16.63;;
43620;SDS011;29213;50.770;7.298;2022-11-20T11:30:14;27.05;;;18.52;;
43620;SDS011;29213;50.770;7.298;2022-11-20T11:32:41;28.58;;;18.10;;
43620;SDS011;29213;50.770;7.298;2022-11-20T11:35:18;24.73;;;16.80;;
43620;SDS011;29213;50.770;7.298;2022-11-20T11:37:52;25.85;;;17.15;;
43620;SDS011;29213;50.770;7.298;2022-11-20T11:40:26;25.40;;;17.45;;
43620;SDS011;29213;50.770;7.298;2022-11-20T11:43:02;25.88;;;16.63;;
43620;SDS011;29213;50.770;7.298;2022-11-20T11:45:52;24.48;;;17.25;;
43620;SDS011;29213;50.770;7.298;2022-11-20T11:48:19;25.48;;;17.50;;
43620;SDS011;29213;50.770;7.298;2022-11-20T11:50:49;24.65;;;17.10;;
43620;SDS011;29213;50.770;7.298;2022-11-20T11:53:16;26.40;;;18.58;;
43620;SDS011;29213;50.770;7.298;2022-11-20T11:55:50;23.75;;;16.65;;
43620;SDS011;29213;50.770;7.298;2022-11-20T12:03:44;23.65;;;15.68;;
43620;SDS011;29213;50.770;7.298;2022-11-20T12:06:20;23.73;;;15.93;;
43620;SDS011;29213;50.770;7.298;2022-11-20T12:08:50;25.30;;;16.88;;
43620;SDS011;29213;50.770;7.298;2022-11-20T12:14:29;18.35;;;11.80;;
43620;SDS011;29213;50.770;7.298;2022-11-20T12:16:59;24.77;;;16.85;;
43620;SDS011;29213;50.770;7.298;2022-11-20T12:19:26;26.85;;;17.35;;
43620;SDS011;29213;50.770;7.298;2022-11-20T12:22:00;27.38;;;18.30;;
43620;SDS011;29213;50.770;7.298;2022-11-20T12:29:51;23.95;;;17.38;;
43620;SDS011;29213;50.770;7.298;2022-11-20T12:32:30;25.83;;;17.13;;
43620;SDS011;29213;50.770;7.298;2022-11-20T12:35:32;24.65;;;17.10;;
43620;SDS011;29213;50.770;7.298;2022-11-20T12:38:39;25.38;;;17.30;;
43620;SDS011;29213;50.770;7.298;2022-11-20T12:52:56;23.67;;;16.95;;
43620;SDS011;29213;50.770;7.298;2022-11-20T12:55:33;24.20;;;16.10;;
43620;SDS011;29213;50.770;7.298;2022-11-20T13:06:49;23.40;;;16.40;;
43620;SDS011;29213;50.770;7.298;2022-11-20T13:09:16;24.27;;;16.70;;
43620;SDS011;29213;50.770;7.298;2022-11-20T13:11:49;21.65;;;15.20;;
43620;SDS011;29213;50.770;7.298;2022-11-20T13:19:49;25.60;;;16.52;;
43620;SDS011;29213;50.770;7.298;2022-11-20T13:22:25;22.90;;;15.43;;
43620;SDS011;29213;50.770;7.298;2022-11-20T13:24:51;28.25;;;17.63;;
43620;SDS011;29213;50.770;7.298;2022-11-20T13:27:18;22.17;;;15.80;;
43620;SDS011;29213;50.770;7.298;2022-11-20T13:29:47;27.17;;;16.85;;
43620;SDS011;29213;50.770;7.298;2022-11-20T13:32:47;22.75;;;16.00;;
43620;SDS011;29213;50.770;7.298;2022-11-20T13:35:13;22.30;;;15.50;;
43620;SDS011;29213;50.770;7.298;2022-11-20T13:40:38;24.95;;;16.27;;
43620;SDS011;29213;50.770;7.298;2022-11-20T13:46:06;23.08;;;15.75;;
43620;SDS011;29213;50.770;7.298;2022-11-20T13:48:34;21.15;;;14.80;;
43620;SDS011;29213;50.770;7.298;2022-11-20T13:54:01;21.75;;;15.05;;
43620;SDS011;29213;50.770;7.298;2022-11-20T13:56:47;27.10;;;16.30;;
43620;SDS011;29213;50.770;7.298;2022-11-20T14:02:09;23.75;;;15.45;;
43620;SDS011;29213;50.770;7.298;2022-11-20T14:04:38;22.35;;;14.93;;
43620;SDS011;29213;50.770;7.298;2022-11-20T14:07:08;23.58;;;14.27;;
43620;SDS011;29213;50.770;7.298;2022-11-20T14:09:34;23.50;;;15.55;;
43620;SDS011;29213;50.770;7.298;2022-11-20T14:12:01;22.17;;;15.55;;
43620;SDS011;29213;50.770;7.298;2022-11-20T14:14:28;21.35;;;14.43;;
43620;SDS011;29213;50.770;7.298;2022-11-20T14:17:08;20.90;;;14.40;;
43620;SDS011;29213;50.770;7.298;2022-11-20T14:19:42;23.75;;;15.10;;
43620;SDS011;29213;50.770;7.298;2022-11-20T14:22:23;22.35;;;15.15;;
43620;SDS011;29213;50.770;7.298;2022-11-20T14:25:06;25.38;;;16.13;;
43620;SDS011;29213;50.770;7.298;2022-11-20T14:27:33;20.75;;;14.48;;
43620;SDS011;29213;50.770;7.298;2022-11-20T14:30:02;23.88;;;15.55;;
43620;SDS011;29213;50.770;7.298;2022-11-20T14:32:28;22.90;;;15.60;;
43620;SDS011;29213;50.770;7.298;2022-11-20T14:34:55;22.63;;;15.27;;
43620;SDS011;29213;50.770;7.298;2022-11-20T14:37:27;21.23;;;14.93;;
43620;SDS011;29213;50.770;7.298;2022-11-20T14:39:58;22.77;;;16.05;;
43620;SDS011;29213;50.770;7.298;2022-11-20T14:42:25;21.73;;;14.93;;
43620;SDS011;29213;50.770;7.298;2022-11-20T14:44:52;21.45;;;14.90;;
43620;SDS011;29213;50.770;7.298;2022-11-20T14:47:21;21.10;;;14.43;;
43620;SDS011;29213;50.770;7.298;2022-11-20T14:49:50;21.52;;;14.02;;
43620;SDS011;29213;50.770;7.298;2022-11-20T14:52:21;20.17;;;13.98;;
43620;SDS011;29213;50.770;7.298;2022-11-20T14:54:58;20.30;;;14.30;;
43620;SDS011;29213;50.770;7.298;2022-11-20T14:57:28;18.42;;;13.18;;
43620;SDS011;29213;50.770;7.298;2022-11-20T15:00:05;18.30;;;11.73;;
43620;SDS011;29213;50.770;7.298;2022-11-20T15:02:46;18.65;;;12.35;;
43620;SDS011;29213;50.770;7.298;2022-11-20T15:05:14;21.08;;;13.65;;
43620;SDS011;29213;50.770;7.298;2022-11-20T15:07:43;17.40;;;12.23;;
43620;SDS011;29213;50.770;7.298;2022-11-20T15:10:19;17.52;;;12.27;;
43620;SDS011;29213;50.770;7.298;2022-11-20T15:12:50;21.83;;;13.35;;
43620;SDS011;29213;50.770;7.298;2022-11-20T15:15:17;18.77;;;13.10;;
43620;SDS011;29213;50.770;7.298;2022-11-20T15:20:13;15.40;;;10.98;;
43620;SDS011;29213;50.770;7.298;2022-11-20T15:22:40;16.42;;;10.95;;
43620;SDS011;29213;50.770;7.298;2022-11-20T15:25:13;16.30;;;11.02;;
43620;SDS011;29213;50.770;7.298;2022-11-20T15:27:41;16.52;;;11.35;;
43620;SDS011;29213;50.770;7.298;2022-11-20T15:30:17;15.30;;;10.35;;
43620;SDS011;29213;50.770;7.298;2022-11-20T15:32:45;15.20;;;10.13;;
43620;SDS011;29213;50.770;7.298;2022-11-20T15:35:11;17.67;;;11.18;;
43620;SDS011;29213;50.770;7.298;2022-11-20T15:37:38;17.45;;;9.90;;
43620;SDS011;29213;50.770;7.298;2022-11-20T15:40:04;14.77;;;9.85;;
43620;SDS011;29213;50.770;7.298;2022-11-20T15:42:31;13.98;;;9.77;;
43620;SDS011;29213;50.770;7.298;2022-11-20T15:44:57;14.40;;;9.52;;
43620;SDS011;29213;50.770;7.298;2022-11-20T15:47:24;13.45;;;9.50;;
43620;SDS011;29213;50.770;7.298;2022-11-20T15:49:53;13.98;;;9.70;;
43620;SDS011;29213;50.770;7.298;2022-11-20T15:52:18;13.60;;;7.22;;
43620;SDS011;29213;50.770;7.298;2022-11-20T15:54:44;7.10;;;4.50;;
43620;SDS011;29213;50.770;7.298;2022-11-20T15:57:09;7.65;;;4.82;;